Time;durP1;ratioP1;P1;durP2;ratioP2;P2;SDS_P1;SDS_P2;PMS_P1;PMS_P2;Temp;Humidity;BMP_temperature;BMP_pressure;BME280_temperature;BME280_humidity;BME280_pressure;Samples;Min_cycle;Max_cycle;Signal;HPM_P1;HPM_P2
2021/07/10 00:01:37;;;;;;;18.47;10.93;;;16.60;93.60;;;;;;5051783;28;20201;-75
2021/07/10 00:04:06;;;;;;;20.90;11.00;;;16.60;93.90;;;;;;5060936;28;20159;-74
2021/07/10 00:06:32;;;;;;;17.53;11.37;;;16.60;94.00;;;;;;5066123;28;20686;-77
2021/07/10 00:08:58;;;;;;;15.03;9.93;;;16.50;94.10;;;;;;5066707;28;20439;-75
2021/07/10 00:11:24;;;;;;;14.70;9.17;;;16.50;94.10;;;;;;5058600;28;20907;-74
2021/07/10 00:13:49;;;;;;;14.57;10.17;;;16.40;94.10;;;;;;5055701;28;20645;-75
2021/07/10 00:16:15;;;;;;;16.90;10.43;;;16.40;94.00;;;;;;5054172;28;20685;-77
2021/07/10 00:18:41;;;;;;;14.20;9.70;;;16.30;94.10;;;;;;5054049;28;20205;-78
2021/07/10 00:21:07;;;;;;;17.67;9.87;;;16.20;94.20;;;;;;5052930;28;20220;-75
2021/07/10 00:23:34;;;;;;;14.87;10.30;;;16.20;94.40;;;;;;5051082;28;20182;-76
2021/07/10 00:26:00;;;;;;;16.00;11.20;;;16.10;94.40;;;;;;5053151;28;20177;-74
2021/07/10 00:28:26;;;;;;;16.60;10.80;;;16.10;94.60;;;;;;5053384;28;20842;-77
2021/07/10 00:30:51;;;;;;;19.23;9.87;;;16.10;94.30;;;;;;5044607;28;20192;-75
2021/07/10 00:33:17;;;;;;;16.60;11.20;;;16.10;94.30;;;;;;5053513;28;20195;-74
2021/07/10 00:35:43;;;;;;;14.10;9.53;;;16.10;94.00;;;;;;5053086;28;20253;-75
2021/07/10 00:38:08;;;;;;;15.93;10.47;;;16.10;93.80;;;;;;5053445;28;20210;-75
2021/07/10 00:40:34;;;;;;;15.23;10.00;;;16.10;94.00;;;;;;5052008;28;20276;-73
2021/07/10 00:43:00;;;;;;;14.20;10.37;;;16.00;94.30;;;;;;5053015;28;20187;-74
2021/07/10 00:45:26;;;;;;;20.80;10.60;;;15.90;94.30;;;;;;5053344;28;20284;-75
2021/07/10 00:47:52;;;;;;;19.00;11.23;;;15.90;94.60;;;;;;5052047;28;20481;-73
2021/07/10 00:50:22;;;;;;;22.30;11.50;;;15.80;94.90;;;;;;5049651;28;21242;-74
2021/07/10 00:52:48;;;;;;;17.57;9.87;;;15.80;95.10;;;;;;5049423;28;20185;-75
2021/07/10 00:55:15;;;;;;;14.87;9.70;;;15.80;95.30;;;;;;5051730;28;20466;-75
2021/07/10 00:57:42;;;;;;;15.77;10.47;;;15.80;95.20;;;;;;5049875;28;20418;-76
2021/07/10 01:00:12;;;;;;;16.50;10.10;;;15.70;95.30;;;;;;5046875;28;20439;-75
2021/07/10 01:02:40;;;;;;;16.20;10.00;;;15.80;95.20;;;;;;5052775;28;20419;-76
2021/07/10 01:05:09;;;;;;;16.90;10.43;;;15.70;95.20;;;;;;5046054;28;20886;-78
2021/07/10 01:07:35;;;;;;;17.20;9.97;;;15.70;95.30;;;;;;5052666;28;20495;-76
2021/07/10 01:10:02;;;;;;;19.00;10.97;;;15.70;95.50;;;;;;5049495;28;20997;-77
2021/07/10 01:12:30;;;;;;;16.00;10.63;;;15.70;95.50;;;;;;5045671;28;20276;-75
2021/07/10 01:14:56;;;;;;;18.33;10.73;;;15.60;95.40;;;;;;5050244;28;20500;-77
2021/07/10 01:17:22;;;;;;;16.50;10.23;;;15.50;95.70;;;;;;5053929;28;20488;-77
2021/07/10 01:20:03;;;;;;;14.83;10.13;;;15.50;95.80;;;;;;5046176;28;21159;-76
2021/07/10 01:22:28;;;;;;;15.50;9.90;;;15.50;95.90;;;;;;5051447;28;20236;-76
2021/07/10 01:24:55;;;;;;;17.37;10.47;;;15.50;95.90;;;;;;5048063;28;20422;-76
2021/07/10 01:27:21;;;;;;;19.97;10.90;;;15.50;95.40;;;;;;5040633;28;20191;-76
2021/07/10 01:29:48;;;;;;;17.57;10.27;;;15.40;95.40;;;;;;5043064;28;20444;-76
2021/07/10 01:32:18;;;;;;;14.63;10.20;;;15.40;95.60;;;;;;5049175;28;20434;-77
2021/07/10 01:34:48;;;;;;;16.60;10.97;;;15.40;95.70;;;;;;5052218;28;20543;-74
2021/07/10 01:37:15;;;;;;;15.60;10.10;;;15.40;95.70;;;;;;5051455;28;20414;-76
2021/07/10 01:39:42;;;;;;;20.47;10.63;;;15.30;96.20;;;;;;5051447;28;20447;-76
2021/07/10 01:42:08;;;;;;;15.67;9.93;;;15.30;96.50;;;;;;5052064;28;20432;-76
2021/07/10 01:44:34;;;;;;;15.80;10.07;;;15.30;96.60;;;;;;5050626;28;20825;-75
2021/07/10 01:47:00;;;;;;;16.10;10.50;;;15.30;96.60;;;;;;5053461;28;20421;-75
2021/07/10 01:49:26;;;;;;;15.53;9.70;;;15.30;96.70;;;;;;5049569;28;20512;-76
2021/07/10 01:51:52;;;;;;;16.17;9.57;;;15.30;96.70;;;;;;5051701;28;20185;-76
2021/07/10 01:54:17;;;;;;;14.27;9.37;;;15.30;96.50;;;;;;5052031;28;20270;-76
2021/07/10 01:56:43;;;;;;;17.67;9.20;;;15.30;96.30;;;;;;5047851;28;20200;-74
2021/07/10 01:59:09;;;;;;;13.73;9.40;;;15.30;96.20;;;;;;5050437;28;20303;-75
2021/07/10 02:01:34;;;;;;;14.20;9.10;;;15.30;96.10;;;;;;5049881;28;20182;-75
2021/07/10 02:04:02;;;;;;;18.07;11.20;;;15.20;96.10;;;;;;5044827;28;20195;-76
2021/07/10 02:06:27;;;;;;;20.93;10.40;;;15.20;96.10;;;;;;5051590;28;20549;-75
2021/07/10 02:08:54;;;;;;;19.47;11.40;;;15.20;96.40;;;;;;5051771;28;20490;-75
2021/07/10 02:11:21;;;;;;;20.07;11.27;;;15.10;96.40;;;;;;5044560;28;20194;-75
2021/07/10 02:13:46;;;;;;;14.67;9.57;;;15.10;96.60;;;;;;5050541;28;20538;-75
2021/07/10 02:16:14;;;;;;;13.47;9.80;;;15.10;96.60;;;;;;5052071;28;20463;-74
2021/07/10 02:18:40;;;;;;;14.60;10.33;;;15.10;96.60;;;;;;5050887;28;20288;-75
2021/07/10 02:21:06;;;;;;;14.70;8.63;;;15.10;96.60;;;;;;5042740;28;20567;-77
2021/07/10 02:23:33;;;;;;;14.30;9.37;;;15.10;96.50;;;;;;5049139;28;20184;-75
2021/07/10 02:25:58;;;;;;;14.63;9.87;;;15.10;96.40;;;;;;5052812;28;20447;-75
2021/07/10 02:28:24;;;;;;;14.43;9.40;;;15.10;96.30;;;;;;5051086;28;20530;-76
2021/07/10 02:30:50;;;;;;;16.37;9.77;;;15.10;96.30;;;;;;5052008;28;20189;-75
2021/07/10 02:33:16;;;;;;;16.27;9.03;;;15.00;96.30;;;;;;5052017;28;20427;-75
2021/07/10 02:35:44;;;;;;;13.10;9.47;;;15.00;96.40;;;;;;5051664;28;20288;-76
2021/07/10 02:38:10;;;;;;;12.50;8.77;;;15.00;96.40;;;;;;5050089;28;20430;-76
2021/07/10 02:40:36;;;;;;;12.57;8.13;;;15.00;96.40;;;;;;5049780;28;20522;-75
2021/07/10 02:43:03;;;;;;;12.67;8.97;;;15.00;96.40;;;;;;5052985;28;20454;-75
2021/07/10 02:45:28;;;;;;;14.30;8.80;;;14.90;96.30;;;;;;5047610;28;20468;-75
2021/07/10 02:47:54;;;;;;;11.77;8.87;;;14.90;96.40;;;;;;5050851;28;20451;-75
2021/07/10 02:50:23;;;;;;;17.87;10.50;;;14.90;96.50;;;;;;5047956;28;20680;-76
2021/07/10 02:52:49;;;;;;;11.93;8.50;;;14.80;96.60;;;;;;5050860;28;20476;-75
2021/07/10 02:55:15;;;;;;;12.17;8.33;;;14.80;96.70;;;;;;5050967;28;20455;-74
2021/07/10 02:57:41;;;;;;;13.47;8.97;;;14.80;96.70;;;;;;5050754;28;20522;-74
2021/07/10 03:00:15;;;;;;;14.13;9.87;;;14.70;96.70;;;;;;5045408;28;20444;-75
2021/07/10 03:02:41;;;;;;;17.03;10.50;;;14.70;96.70;;;;;;5044488;28;20476;-75
2021/07/10 03:05:07;;;;;;;16.57;10.10;;;14.70;96.70;;;;;;5043331;28;20416;-76
2021/07/10 03:07:38;;;;;;;14.90;9.10;;;14.60;96.60;;;;;;5050120;28;20419;-74
2021/07/10 03:10:06;;;;;;;11.30;8.50;;;14.50;96.80;;;;;;5040455;28;20816;-75
2021/07/10 03:12:32;;;;;;;13.70;9.23;;;14.50;97.00;;;;;;5038890;28;20891;-74
2021/07/10 03:14:58;;;;;;;11.60;8.90;;;14.50;97.00;;;;;;5048430;28;20506;-76
2021/07/10 03:17:23;;;;;;;14.50;8.77;;;14.50;97.10;;;;;;5049795;28;20177;-75
2021/07/10 03:19:49;;;;;;;14.60;10.57;;;14.50;97.10;;;;;;5044523;28;20254;-75
2021/07/10 03:22:15;;;;;;;14.67;10.17;;;14.50;97.20;;;;;;5040997;28;20215;-75
2021/07/10 03:24:41;;;;;;;15.97;9.73;;;14.50;97.30;;;;;;5044530;28;20273;-75
2021/07/10 03:27:08;;;;;;;14.00;10.40;;;14.50;97.30;;;;;;5050758;28;20177;-75
2021/07/10 03:29:34;;;;;;;14.30;9.53;;;14.50;97.30;;;;;;5040154;28;20209;-76
2021/07/10 03:32:00;;;;;;;13.90;8.67;;;14.50;97.30;;;;;;5048307;28;20426;-78
2021/07/10 03:34:26;;;;;;;13.73;8.60;;;14.40;97.30;;;;;;5049150;28;20438;-74
2021/07/10 03:36:52;;;;;;;12.60;9.00;;;14.40;97.30;;;;;;5050700;28;20186;-76
2021/07/10 03:39:17;;;;;;;14.37;7.97;;;14.40;97.30;;;;;;5053671;28;20215;-78
2021/07/10 03:41:43;;;;;;;16.30;10.27;;;14.30;97.50;;;;;;5058410;28;20412;-75
2021/07/10 03:44:09;;;;;;;16.90;11.00;;;14.30;97.60;;;;;;5068406;28;20230;-76
2021/07/10 03:46:35;;;;;;;16.30;10.50;;;14.30;97.80;;;;;;5057048;28;20655;-78
2021/07/10 03:49:00;;;;;;;20.40;11.30;;;14.30;97.90;;;;;;5063725;28;20235;-74
2021/07/10 03:51:27;;;;;;;15.83;10.47;;;14.30;97.70;;;;;;5071302;28;20182;-74
2021/07/10 03:53:53;;;;;;;19.10;11.67;;;14.30;97.80;;;;;;5068666;28;20200;-75
2021/07/10 03:56:19;;;;;;;14.43;10.03;;;14.30;97.80;;;;;;5054657;28;20501;-76
2021/07/10 03:58:46;;;;;;;19.13;11.67;;;14.30;97.80;;;;;;5046176;28;20510;-78
2021/07/10 04:01:12;;;;;;;15.83;10.13;;;14.30;97.80;;;;;;5051464;28;20453;-78
2021/07/10 04:03:38;;;;;;;18.10;10.63;;;14.40;97.90;;;;;;5042356;28;20435;-77
2021/07/10 04:06:04;;;;;;;16.00;10.20;;;14.40;97.90;;;;;;5048027;28;20424;-76
2021/07/10 04:08:29;;;;;;;17.30;10.43;;;14.50;97.70;;;;;;5051325;28;20206;-75
2021/07/10 04:10:55;;;;;;;19.53;12.00;;;14.40;97.60;;;;;;5054213;28;20188;-77
2021/07/10 04:13:21;;;;;;;16.67;11.27;;;14.40;97.60;;;;;;5053742;28;20398;-77
2021/07/10 04:15:46;;;;;;;20.97;11.93;;;14.40;97.50;;;;;;5053843;28;20672;-78
2021/07/10 04:18:12;;;;;;;23.00;12.20;;;14.50;97.40;;;;;;5047450;28;20176;-76
2021/07/10 04:20:38;;;;;;;14.83;10.20;;;14.50;97.20;;;;;;5053994;28;20186;-77
2021/07/10 04:23:05;;;;;;;14.90;10.60;;;14.50;97.30;;;;;;5044381;28;20650;-77
2021/07/10 04:25:32;;;;;;;17.20;11.43;;;14.50;97.20;;;;;;5052990;28;20188;-78
2021/07/10 04:27:58;;;;;;;17.60;10.30;;;14.60;97.10;;;;;;5042262;28;20476;-78
2021/07/10 04:30:24;;;;;;;15.77;10.00;;;14.60;97.00;;;;;;5052595;28;20822;-77
2021/07/10 04:32:52;;;;;;;15.17;10.60;;;14.70;97.00;;;;;;5052476;28;20427;-80
2021/07/10 04:35:19;;;;;;;16.47;10.47;;;14.70;96.90;;;;;;5050234;28;20475;-77
2021/07/10 04:37:44;;;;;;;17.23;10.83;;;14.70;96.40;;;;;;5050418;28;20470;-75
2021/07/10 04:40:12;;;;;;;16.87;10.80;;;14.70;96.30;;;;;;5047559;28;20451;-76
2021/07/10 04:42:38;;;;;;;13.43;9.13;;;14.70;96.30;;;;;;5042093;28;20281;-77
2021/07/10 04:45:08;;;;;;;17.47;12.23;;;14.80;96.20;;;;;;5046017;28;20437;-75
2021/07/10 04:47:34;;;;;;;22.57;12.50;;;14.80;96.10;;;;;;5048570;28;20905;-76
2021/07/10 04:50:00;;;;;;;18.50;11.60;;;14.80;96.10;;;;;;5047887;28;20441;-76
2021/07/10 04:52:26;;;;;;;19.23;11.40;;;14.90;96.10;;;;;;5048671;28;20978;-76
2021/07/10 04:54:52;;;;;;;19.33;12.40;;;14.90;96.10;;;;;;5046413;28;20216;-77
2021/07/10 04:57:18;;;;;;;22.40;12.30;;;14.90;96.10;;;;;;5052606;28;20431;-76
2021/07/10 04:59:43;;;;;;;19.53;11.03;;;14.90;96.10;;;;;;5047311;28;20205;-76
2021/07/10 05:02:10;;;;;;;19.37;10.37;;;15.00;96.10;;;;;;5045919;28;20185;-75
2021/07/10 05:04:36;;;;;;;14.70;10.20;;;15.20;96.10;;;;;;5039357;28;20190;-76
2021/07/10 05:07:01;;;;;;;16.60;10.47;;;15.20;96.00;;;;;;5051402;28;20428;-75
2021/07/10 05:09:27;;;;;;;16.13;9.70;;;15.30;95.80;;;;;;5052447;28;20198;-75
2021/07/10 05:11:53;;;;;;;14.80;10.40;;;15.40;95.60;;;;;;5048223;28;20457;-77
2021/07/10 05:14:19;;;;;;;18.87;11.63;;;15.50;95.00;;;;;;5054897;28;20240;-76
2021/07/10 05:16:44;;;;;;;19.37;12.20;;;15.60;94.60;;;;;;5053470;28;20217;-77
2021/07/10 05:19:10;;;;;;;19.60;11.20;;;15.60;94.20;;;;;;5051064;28;20209;-77
2021/07/10 05:21:36;;;;;;;19.27;10.97;;;15.60;94.00;;;;;;5039682;28;20183;-76
2021/07/10 05:24:03;;;;;;;15.73;10.80;;;15.70;93.80;;;;;;5053172;28;20467;-77
2021/07/10 05:26:28;;;;;;;21.47;12.97;;;15.70;93.80;;;;;;5052868;28;20192;-74
2021/07/10 05:28:54;;;;;;;20.90;12.50;;;15.70;93.80;;;;;;5049179;28;20466;-76
2021/07/10 05:31:20;;;;;;;20.30;12.30;;;15.60;93.90;;;;;;5051231;28;20202;-76
2021/07/10 05:33:46;;;;;;;16.67;11.50;;;15.70;94.00;;;;;;5050836;28;20448;-75
2021/07/10 05:36:12;;;;;;;19.07;12.37;;;15.70;93.90;;;;;;5048284;28;20212;-73
2021/07/10 05:38:37;;;;;;;14.83;10.70;;;15.80;93.70;;;;;;5052300;28;20676;-73
2021/07/10 05:41:03;;;;;;;19.63;11.27;;;15.80;93.70;;;;;;5051173;28;20196;-74
2021/07/10 05:43:29;;;;;;;16.97;10.83;;;15.90;93.60;;;;;;5055716;28;20191;-72
2021/07/10 05:45:55;;;;;;;18.60;11.73;;;15.90;93.50;;;;;;5051734;28;20193;-73
2021/07/10 05:48:21;;;;;;;18.17;11.80;;;16.00;93.60;;;;;;5048428;28;20211;-73
2021/07/10 05:50:47;;;;;;;17.23;12.40;;;16.10;93.30;;;;;;5033857;28;20461;-72
2021/07/10 05:53:13;;;;;;;18.47;12.27;;;16.10;93.20;;;;;;5047669;28;20427;-73
2021/07/10 05:55:40;;;;;;;19.23;11.60;;;16.10;93.20;;;;;;5038977;28;20471;-75
2021/07/10 05:58:05;;;;;;;17.97;11.40;;;16.30;92.80;;;;;;5043859;28;20779;-75
2021/07/10 06:00:32;;;;;;;19.47;12.23;;;16.40;92.40;;;;;;5045669;28;20434;-73
2021/07/10 06:03:00;;;;;;;18.70;11.80;;;16.40;92.40;;;;;;5049071;28;20188;-74
2021/07/10 06:05:26;;;;;;;17.30;11.43;;;16.60;92.30;;;;;;5049057;28;21026;-73
2021/07/10 06:07:55;;;;;;;16.57;10.87;;;16.60;92.10;;;;;;5036785;28;20431;-72
2021/07/10 06:10:21;;;;;;;13.53;10.13;;;16.70;92.10;;;;;;5049855;28;20443;-74
2021/07/10 06:12:48;;;;;;;14.77;10.33;;;16.80;91.70;;;;;;5048812;28;20423;-73
2021/07/10 06:15:14;;;;;;;13.93;9.87;;;17.00;91.50;;;;;;5049338;28;20462;-75
2021/07/10 06:17:41;;;;;;;16.07;10.63;;;17.10;91.10;;;;;;5042674;28;20450;-74
2021/07/10 06:20:09;;;;;;;16.27;10.87;;;17.20;91.10;;;;;;5044323;28;20443;-73
2021/07/10 06:22:36;;;;;;;15.70;9.83;;;17.30;91.00;;;;;;5044169;28;20514;-76
2021/07/10 06:25:07;;;;;;;13.10;9.17;;;17.40;91.00;;;;;;5046970;28;20470;-72
2021/07/10 06:27:32;;;;;;;12.03;9.30;;;17.40;90.90;;;;;;5044211;28;20446;-74
2021/07/10 06:29:58;;;;;;;13.90;9.53;;;17.60;90.20;;;;;;5042149;28;20536;-73
2021/07/10 06:32:24;;;;;;;21.43;12.33;;;17.70;89.50;;;;;;5043166;28;20463;-74
2021/07/10 06:34:50;;;;;;;17.13;9.83;;;17.90;89.20;;;;;;5046785;28;20223;-72
2021/07/10 06:37:16;;;;;;;17.50;11.93;;;17.90;88.90;;;;;;5044804;28;20475;-72
2021/07/10 06:39:41;;;;;;;14.60;9.63;;;18.10;88.60;;;;;;5047416;28;20238;-75
2021/07/10 06:42:07;;;;;;;15.57;9.87;;;18.20;88.00;;;;;;5040274;28;20704;-73
2021/07/10 06:44:33;;;;;;;11.93;9.33;;;18.30;87.60;;;;;;5044036;28;20188;-73
2021/07/10 06:46:58;;;;;;;14.50;9.87;;;18.40;87.10;;;;;;5044489;28;20196;-73
2021/07/10 06:49:24;;;;;;;16.60;10.87;;;18.50;87.30;;;;;;5045348;28;20204;-73
2021/07/10 06:51:50;;;;;;;13.97;9.40;;;18.60;87.10;;;;;;5046647;28;20679;-72
2021/07/10 06:54:16;;;;;;;12.63;9.40;;;18.70;87.10;;;;;;5048535;28;20195;-74
2021/07/10 06:56:42;;;;;;;12.60;9.43;;;18.80;86.60;;;;;;5045747;28;20288;-73
2021/07/10 06:59:10;;;;;;;12.40;8.53;;;18.80;86.30;;;;;;5042189;28;20215;-72
2021/07/10 07:01:35;;;;;;;11.80;9.70;;;18.80;86.50;;;;;;5044211;28;20434;-72
2021/07/10 07:04:01;;;;;;;14.50;9.90;;;18.90;85.90;;;;;;5042119;28;20427;-74
2021/07/10 07:06:27;;;;;;;11.20;8.80;;;19.00;85.60;;;;;;5041980;28;20687;-73
2021/07/10 07:08:53;;;;;;;14.20;9.00;;;19.10;85.70;;;;;;5047716;28;20213;-71
2021/07/10 07:11:19;;;;;;;12.43;9.23;;;19.10;85.50;;;;;;5047370;28;20658;-71
2021/07/10 07:13:45;;;;;;;18.93;11.80;;;19.20;84.00;;;;;;5049265;28;20788;-73
2021/07/10 07:16:11;;;;;;;10.30;7.50;;;19.30;83.60;;;;;;5048884;28;20467;-72
2021/07/10 07:18:37;;;;;;;17.70;8.57;;;19.30;83.70;;;;;;5051959;28;20203;-73
2021/07/10 07:21:03;;;;;;;15.93;8.90;;;19.40;83.70;;;;;;5039913;28;20188;-74
2021/07/10 07:23:29;;;;;;;17.63;9.93;;;19.60;83.80;;;;;;5043740;28;20181;-75
2021/07/10 07:25:54;;;;;;;13.90;9.87;;;19.60;83.70;;;;;;5048065;28;20735;-74
2021/07/10 07:28:20;;;;;;;14.73;9.80;;;19.60;84.10;;;;;;5048080;28;20421;-73
2021/07/10 07:30:46;;;;;;;12.07;9.20;;;19.50;84.40;;;;;;5049696;28;20278;-74
2021/07/10 07:33:11;;;;;;;16.27;9.10;;;19.50;85.00;;;;;;5049616;28;20646;-75
2021/07/10 07:35:37;;;;;;;14.57;9.57;;;19.50;85.30;;;;;;5053421;28;20221;-73
2021/07/10 07:38:03;;;;;;;13.93;9.70;;;19.60;84.70;;;;;;5050350;28;20176;-73
2021/07/10 07:40:29;;;;;;;14.10;9.73;;;19.50;84.60;;;;;;5056064;28;20254;-74
2021/07/10 07:42:55;;;;;;;15.53;9.13;;;19.50;84.90;;;;;;5049875;28;20188;-73
2021/07/10 07:45:21;;;;;;;13.30;9.50;;;19.50;85.30;;;;;;5049853;28;20438;-74
2021/07/10 07:47:48;;;;;;;15.27;9.70;;;19.70;85.00;;;;;;5059007;28;20440;-74
2021/07/10 07:50:15;;;;;;;14.00;9.17;;;19.60;84.60;;;;;;5049988;28;20450;-74
2021/07/10 07:52:42;;;;;;;13.80;9.20;;;19.70;84.70;;;;;;5050150;28;20430;-75
2021/07/10 07:55:09;;;;;;;13.40;8.50;;;19.90;83.60;;;;;;5041479;28;20471;-75
2021/07/10 07:57:35;;;;;;;13.20;9.03;;;19.90;83.60;;;;;;5047444;28;20422;-75
2021/07/10 08:00:01;;;;;;;10.80;7.77;;;20.10;83.00;;;;;;5046184;28;20457;-74
2021/07/10 08:02:27;;;;;;;9.77;7.40;;;20.20;81.90;;;;;;5048040;28;20220;-76
2021/07/10 08:04:52;;;;;;;11.03;7.70;;;20.30;80.20;;;;;;5042617;28;20185;-74
2021/07/10 08:07:18;;;;;;;9.10;7.10;;;20.40;79.30;;;;;;5048073;28;20200;-74
2021/07/10 08:09:44;;;;;;;9.97;7.57;;;20.60;78.70;;;;;;5051471;28;20208;-76
2021/07/10 08:12:12;;;;;;;9.63;7.37;;;20.80;77.60;;;;;;5046798;28;20510;-73
2021/07/10 08:14:38;;;;;;;9.87;7.53;;;21.00;76.50;;;;;;5046500;28;21090;-75
2021/07/10 08:17:04;;;;;;;7.77;6.27;;;21.10;76.40;;;;;;5052179;28;20419;-73
2021/07/10 08:19:30;;;;;;;10.10;7.03;;;21.20;74.90;;;;;;5048573;28;20467;-74
2021/07/10 08:21:56;;;;;;;9.73;6.90;;;21.30;74.90;;;;;;5038934;28;20510;-75
2021/07/10 08:24:22;;;;;;;9.60;6.60;;;21.40;74.90;;;;;;5039670;28;20257;-75
2021/07/10 08:26:48;;;;;;;12.17;7.03;;;21.50;73.00;;;;;;5046360;28;20435;-74
2021/07/10 08:29:13;;;;;;;8.80;6.00;;;21.50;72.40;;;;;;5051573;28;20453;-75
2021/07/10 08:31:42;;;;;;;8.67;7.13;;;21.50;71.40;;;;;;5043556;28;20194;-74
2021/07/10 08:34:10;;;;;;;9.53;6.97;;;21.60;71.00;;;;;;5047688;28;20256;-74
2021/07/10 08:36:36;;;;;;;8.50;6.43;;;21.60;70.70;;;;;;5049057;28;20500;-74
2021/07/10 08:39:04;;;;;;;9.30;6.30;;;21.50;70.50;;;;;;5045778;28;20436;-75
2021/07/10 08:41:30;;;;;;;8.73;7.00;;;21.50;69.80;;;;;;5049272;28;20437;-74
2021/07/10 08:43:56;;;;;;;7.80;5.70;;;21.60;70.20;;;;;;5045759;28;20420;-74
2021/07/10 08:46:22;;;;;;;9.33;6.23;;;21.50;69.50;;;;;;5045962;28;20216;-74
2021/07/10 08:48:49;;;;;;;8.30;6.20;;;21.50;71.00;;;;;;5043452;28;20237;-73
2021/07/10 08:51:15;;;;;;;9.30;6.30;;;21.60;71.00;;;;;;5037816;28;20199;-76
2021/07/10 08:53:41;;;;;;;10.93;6.83;;;21.70;71.00;;;;;;5043956;28;20422;-75
2021/07/10 08:56:08;;;;;;;10.37;7.20;;;21.80;71.30;;;;;;5050918;28;20567;-75
2021/07/10 08:58:36;;;;;;;9.40;6.67;;;21.90;69.70;;;;;;5043702;28;20803;-75
2021/07/10 09:01:04;;;;;;;7.70;5.93;;;21.90;69.10;;;;;;5040935;28;20428;-75
2021/07/10 09:03:30;;;;;;;9.07;6.57;;;22.00;68.00;;;;;;5044335;28;20782;-75
2021/07/10 09:05:56;;;;;;;7.23;5.73;;;22.00;67.90;;;;;;5038654;28;20470;-74
2021/07/10 09:08:32;;;;;;;7.30;5.50;;;22.10;68.60;;;;;;5042988;28;20454;-75
2021/07/10 09:11:19;;;;;;;5.77;5.53;;;22.20;67.70;;;;;;5037680;28;20453;-74
2021/07/10 09:13:48;;;;;;;8.40;5.57;;;22.30;67.20;;;;;;5047224;28;20476;-74
2021/07/10 09:16:32;;;;;;;13.60;5.20;;;22.40;66.90;;;;;;5044835;28;20982;-75
2021/07/10 09:18:59;;;;;;;9.27;6.67;;;22.40;66.10;;;;;;5047417;28;20441;-75
2021/07/10 09:21:37;;;;;;;8.37;4.77;;;22.40;66.10;;;;;;5042665;28;20425;-73
2021/07/10 09:24:05;;;;;;;7.90;5.77;;;22.50;66.30;;;;;;5038151;28;20959;-75
2021/07/10 09:26:31;;;;;;;6.77;5.63;;;22.60;65.80;;;;;;5039396;28;20426;-75
2021/07/10 09:29:04;;;;;;;7.10;4.87;;;22.80;64.40;;;;;;5043227;28;20452;-75
2021/07/10 09:31:39;;;;;;;6.40;5.13;;;22.70;62.60;;;;;;5049764;28;20442;-75
2021/07/10 09:34:12;;;;;;;8.60;5.80;;;22.70;62.80;;;;;;5043026;28;20421;-74
2021/07/10 09:36:59;;;;;;;8.43;5.40;;;22.80;64.10;;;;;;5043321;28;20470;-74
2021/07/10 09:39:28;;;;;;;5.90;5.00;;;22.90;64.20;;;;;;5046203;28;20443;-73
2021/07/10 09:41:56;;;;;;;5.90;4.80;;;23.10;63.50;;;;;;5040908;28;20414;-74
2021/07/10 09:44:22;;;;;;;5.93;4.80;;;23.20;61.30;;;;;;5043544;28;20476;-74
2021/07/10 09:46:48;;;;;;;6.50;5.17;;;23.20;60.10;;;;;;5049305;28;20491;-74
2021/07/10 09:49:29;;;;;;;7.03;5.33;;;23.20;60.90;;;;;;5041198;28;20447;-75
2021/07/10 09:52:08;;;;;;;6.00;4.87;;;23.10;61.60;;;;;;5048484;28;20214;-75
2021/07/10 09:54:42;;;;;;;7.10;5.30;;;23.20;59.90;;;;;;5040378;28;20427;-75
2021/07/10 09:57:08;;;;;;;6.57;4.37;;;23.10;59.90;;;;;;5044862;28;20423;-76
2021/07/10 09:59:54;;;;;;;6.50;5.20;;;23.00;60.70;;;;;;5047128;28;20972;-75
2021/07/10 10:02:27;;;;;;;9.27;5.40;;;23.10;62.50;;;;;;5041759;28;20182;-74
2021/07/10 10:05:05;;;;;;;6.53;5.30;;;23.30;63.10;;;;;;5046018;28;20499;-75
2021/07/10 10:07:43;;;;;;;6.87;4.87;;;23.30;62.90;;;;;;5042789;28;20427;-75
2021/07/10 10:10:09;;;;;;;6.47;5.00;;;23.40;59.50;;;;;;5039578;28;20471;-76
2021/07/10 10:12:35;;;;;;;6.73;5.20;;;23.50;60.10;;;;;;5047561;28;20657;-75
2021/07/10 10:15:01;;;;;;;6.97;5.70;;;23.60;60.10;;;;;;5049252;28;21225;-76
2021/07/10 10:17:27;;;;;;;8.63;5.07;;;23.80;59.20;;;;;;5045435;28;20683;-75
2021/07/10 10:19:54;;;;;;;6.37;4.97;;;23.90;58.80;;;;;;5043932;28;20234;-76
2021/07/10 10:22:20;;;;;;;6.63;5.50;;;24.20;58.80;;;;;;5043074;28;20915;-76
2021/07/10 10:24:50;;;;;;;6.80;5.43;;;24.50;58.10;;;;;;5043425;28;20427;-75
2021/07/10 10:27:16;;;;;;;8.03;5.50;;;24.80;56.80;;;;;;5047291;28;20518;-74
2021/07/10 10:29:43;;;;;;;6.20;4.20;;;25.00;55.70;;;;;;5041342;28;20506;-75
2021/07/10 10:32:09;;;;;;;5.43;4.03;;;25.00;55.60;;;;;;5044623;28;20432;-75
2021/07/10 10:34:37;;;;;;;7.10;4.40;;;25.00;54.60;;;;;;5040172;28;20446;-77
2021/07/10 10:37:04;;;;;;;6.73;4.47;;;25.10;54.60;;;;;;5044380;28;20496;-75
2021/07/10 10:39:34;;;;;;;6.30;4.70;;;25.20;54.00;;;;;;5043080;28;20976;-75
2021/07/10 10:42:20;;;;;;;4.90;4.10;;;25.10;54.40;;;;;;5034200;28;20422;-75
2021/07/10 10:44:48;;;;;;;5.77;4.47;;;25.20;54.00;;;;;;5041630;28;20767;-75
2021/07/10 10:47:15;;;;;;;7.00;4.07;;;25.60;53.80;;;;;;5042004;28;20567;-75
2021/07/10 10:49:47;;;;;;;7.37;3.80;;;25.80;53.60;;;;;;5041935;28;20820;-75
2021/07/10 10:52:34;;;;;;;7.30;4.03;;;26.00;51.20;;;;;;5038880;28;20481;-74
2021/07/10 10:55:11;;;;;;;6.33;4.50;;;26.10;51.40;;;;;;5044222;28;20605;-74
2021/07/10 10:57:49;;;;;;;6.33;4.23;;;26.20;51.40;;;;;;5049401;28;20858;-75
2021/07/10 11:00:17;;;;;;;6.20;4.07;;;26.00;51.20;;;;;;5046192;28;20468;-77
2021/07/10 11:02:49;;;;;;;4.50;4.10;;;26.00;51.70;;;;;;5047064;28;20428;-74
2021/07/10 11:05:30;;;;;;;3.80;3.47;;;26.00;51.20;;;;;;5051847;28;21007;-74
2021/07/10 11:08:26;;;;;;;5.70;4.40;;;26.00;50.90;;;;;;5047487;28;20421;-74
2021/07/10 11:10:57;;;;;;;5.10;3.63;;;26.20;50.10;;;;;;5051502;28;20476;-74
2021/07/10 11:13:35;;;;;;;5.53;4.37;;;26.20;50.90;;;;;;5048511;28;20437;-74
2021/07/10 11:16:07;;;;;;;5.17;4.20;;;26.30;50.50;;;;;;5046468;28;20468;-74
2021/07/10 11:18:56;;;;;;;6.53;4.57;;;26.40;50.50;;;;;;5048723;28;20477;-75
2021/07/10 11:21:31;;;;;;;6.47;4.13;;;26.60;50.20;;;;;;5057860;28;20413;-75
2021/07/10 11:24:16;;;;;;;5.20;4.10;;;26.70;49.90;;;;;;5049138;28;20489;-75
2021/07/10 11:27:20;;;;;;;4.87;3.77;;;26.80;50.50;;;;;;5054456;28;20426;-73
2021/07/10 11:29:46;;;;;;;6.27;4.27;;;26.90;49.70;;;;;;5052688;28;20821;-74
2021/07/10 11:32:11;;;;;;;6.53;3.57;;;27.10;49.40;;;;;;5049289;28;20434;-74
2021/07/10 11:34:48;;;;;;;3.43;3.27;;;27.20;46.60;;;;;;5047390;28;20208;-75
2021/07/10 11:37:23;;;;;;;6.20;4.60;;;27.10;48.10;;;;;;5046595;28;20275;-73
2021/07/10 11:40:05;;;;;;;5.53;4.20;;;27.30;49.10;;;;;;5041848;28;20613;-75
2021/07/10 11:42:44;;;;;;;4.93;4.10;;;26.90;47.50;;;;;;5042720;28;20516;-73
2021/07/10 11:45:23;;;;;;;4.43;4.13;;;26.70;47.80;;;;;;5040689;28;20471;-75
2021/07/10 11:47:57;;;;;;;5.63;3.97;;;26.70;48.30;;;;;;5044233;28;20434;-74
2021/07/10 11:50:27;;;;;;;6.40;4.87;;;26.80;48.70;;;;;;5045144;28;20468;-73
2021/07/10 11:53:00;;;;;;;5.87;4.73;;;26.80;48.70;;;;;;5047524;28;20421;-75
2021/07/10 11:55:29;;;;;;;5.90;4.50;;;26.60;49.90;;;;;;5042652;28;20471;-73
2021/07/10 11:57:55;;;;;;;4.83;4.50;;;26.40;51.60;;;;;;5047752;28;20414;-74
2021/07/10 12:00:25;;;;;;;5.57;4.60;;;26.30;51.20;;;;;;5052354;28;20528;-74
2021/07/10 12:02:51;;;;;;;5.40;4.27;;;26.30;51.60;;;;;;5050557;28;20421;-75
2021/07/10 12:05:22;;;;;;;9.20;5.20;;;26.20;51.00;;;;;;5042411;28;20431;-73
2021/07/10 12:07:59;;;;;;;5.67;4.80;;;26.00;51.80;;;;;;5048166;28;20240;-74
2021/07/10 12:10:29;;;;;;;6.03;4.80;;;25.90;52.40;;;;;;5041598;28;20434;-73
2021/07/10 12:13:00;;;;;;;7.73;5.23;;;25.70;52.90;;;;;;5052382;28;20936;-74
2021/07/10 12:15:29;;;;;;;6.57;5.20;;;25.70;53.00;;;;;;5045264;28;20552;-76
2021/07/10 12:17:57;;;;;;;6.80;4.70;;;25.80;53.30;;;;;;5052744;28;20430;-76
2021/07/10 12:20:28;;;;;;;6.17;4.63;;;25.80;52.40;;;;;;5050004;28;20973;-74
2021/07/10 12:23:07;;;;;;;4.50;4.30;;;26.10;52.50;;;;;;5050497;28;20415;-74
2021/07/10 12:25:41;;;;;;;7.10;5.07;;;26.50;50.10;;;;;;5041845;28;20800;-76
2021/07/10 12:28:08;;;;;;;5.73;4.00;;;26.90;50.20;;;;;;5046297;28;20429;-74
2021/07/10 12:30:50;;;;;;;4.90;4.20;;;27.40;48.70;;;;;;5047548;28;20437;-75
2021/07/10 12:33:56;;;;;;;5.37;4.80;;;28.00;48.10;;;;;;5043704;28;20432;-74
2021/07/10 12:36:32;;;;;;;5.00;4.30;;;28.50;46.60;;;;;;5046909;28;20848;-74
2021/07/10 12:39:09;;;;;;;6.53;5.20;;;28.70;46.20;;;;;;5043799;28;20453;-76
2021/07/10 12:41:44;;;;;;;6.27;4.70;;;29.00;46.20;;;;;;5047462;28;20974;-75